sensor_id;sensor_type;location;lat;lon;timestamp;temperature;humidity
19342;DHT22;9807;48.258;12.690;2024-02-26T00:00:31;8.40;99.90
19342;DHT22;9807;48.258;12.690;2024-02-26T00:02:57;8.30;99.90
19342;DHT22;9807;48.258;12.690;2024-02-26T00:05:23;8.20;99.90
19342;DHT22;9807;48.258;12.690;2024-02-26T00:07:49;8.20;99.90
19342;DHT22;9807;48.258;12.690;2024-02-26T00:10:14;8.20;99.90
19342;DHT22;9807;48.258;12.690;2024-02-26T00:12:40;8.20;99.90
19342;DHT22;9807;48.258;12.690;2024-02-26T00:15:07;8.20;99.90
19342;DHT22;9807;48.258;12.690;2024-02-26T00:17:33;8.30;99.90
19342;DHT22;9807;48.258;12.690;2024-02-26T00:19:59;8.30;99.90
19342;DHT22;9807;48.258;12.690;2024-02-26T00:22:26;8.30;99.90
19342;DHT22;9807;48.258;12.690;2024-02-26T00:24:51;8.40;99.90
19342;DHT22;9807;48.258;12.690;2024-02-26T00:27:17;8.30;99.90
19342;DHT22;9807;48.258;12.690;2024-02-26T00:29:43;8.30;99.90
19342;DHT22;9807;48.258;12.690;2024-02-26T00:32:10;8.30;99.90
19342;DHT22;9807;48.258;12.690;2024-02-26T00:34:36;8.30;99.90
19342;DHT22;9807;48.258;12.690;2024-02-26T00:37:02;8.40;99.90
19342;DHT22;9807;48.258;12.690;2024-02-26T00:39:28;8.40;99.90
19342;DHT22;9807;48.258;12.690;2024-02-26T00:41:53;8.30;99.90
19342;DHT22;9807;48.258;12.690;2024-02-26T00:44:19;8.30;99.90
19342;DHT22;9807;48.258;12.690;2024-02-26T00:46:45;8.30;99.90
19342;DHT22;9807;48.258;12.690;2024-02-26T00:49:10;8.20;99.90
19342;DHT22;9807;48.258;12.690;2024-02-26T00:51:36;8.20;99.90
19342;DHT22;9807;48.258;12.690;2024-02-26T00:54:02;8.30;99.90
19342;DHT22;9807;48.258;12.690;2024-02-26T00:56:28;8.20;99.90
19342;DHT22;9807;48.258;12.690;2024-02-26T00:58:53;8.20;99.90
19342;DHT22;9807;48.258;12.690;2024-02-26T01:01:19;8.30;99.90
19342;DHT22;9807;48.258;12.690;2024-02-26T01:03:45;8.30;99.90
19342;DHT22;9807;48.258;12.690;2024-02-26T01:06:11;8.30;99.90
19342;DHT22;9807;48.258;12.690;2024-02-26T01:08:36;8.30;99.90
19342;DHT22;9807;48.258;12.690;2024-02-26T01:11:03;8.20;99.90
19342;DHT22;9807;48.258;12.690;2024-02-26T01:13:29;8.20;99.90
19342;DHT22;9807;48.258;12.690;2024-02-26T01:15:55;8.20;99.90
19342;DHT22;9807;48.258;12.690;2024-02-26T01:18:20;8.20;99.90
19342;DHT22;9807;48.258;12.690;2024-02-26T01:20:46;8.30;99.90
19342;DHT22;9807;48.258;12.690;2024-02-26T01:23:12;8.20;99.90
19342;DHT22;9807;48.258;12.690;2024-02-26T01:25:38;8.20;99.90
19342;DHT22;9807;48.258;12.690;2024-02-26T01:28:04;8.20;99.90
19342;DHT22;9807;48.258;12.690;2024-02-26T01:30:31;8.20;99.90
19342;DHT22;9807;48.258;12.690;2024-02-26T01:32:57;8.10;99.90
19342;DHT22;9807;48.258;12.690;2024-02-26T01:35:23;8.00;99.90
19342;DHT22;9807;48.258;12.690;2024-02-26T01:37:48;8.10;99.90
19342;DHT22;9807;48.258;12.690;2024-02-26T01:40:14;8.10;99.90
19342;DHT22;9807;48.258;12.690;2024-02-26T01:42:45;8.10;99.90
19342;DHT22;9807;48.258;12.690;2024-02-26T01:45:16;8.20;99.90
19342;DHT22;9807;48.258;12.690;2024-02-26T01:47:48;8.10;99.90
19342;DHT22;9807;48.258;12.690;2024-02-26T01:50:15;8.10;99.90
19342;DHT22;9807;48.258;12.690;2024-02-26T01:52:40;8.10;99.90
19342;DHT22;9807;48.258;12.690;2024-02-26T01:55:09;8.00;99.90
19342;DHT22;9807;48.258;12.690;2024-02-26T01:57:36;8.00;99.90
19342;DHT22;9807;48.258;12.690;2024-02-26T02:00:02;8.00;99.90
19342;DHT22;9807;48.258;12.690;2024-02-26T02:02:31;8.00;99.90
19342;DHT22;9807;48.258;12.690;2024-02-26T02:04:57;8.00;99.90
19342;DHT22;9807;48.258;12.690;2024-02-26T02:07:23;8.00;99.90
19342;DHT22;9807;48.258;12.690;2024-02-26T02:09:50;8.00;99.90
19342;DHT22;9807;48.258;12.690;2024-02-26T02:12:15;7.90;99.90
19342;DHT22;9807;48.258;12.690;2024-02-26T02:14:41;8.00;99.90
19342;DHT22;9807;48.258;12.690;2024-02-26T02:17:07;7.90;99.90
19342;DHT22;9807;48.258;12.690;2024-02-26T02:19:33;7.90;99.90
19342;DHT22;9807;48.258;12.690;2024-02-26T02:21:58;7.90;99.90
19342;DHT22;9807;48.258;12.690;2024-02-26T02:24:24;7.90;99.90
19342;DHT22;9807;48.258;12.690;2024-02-26T02:26:50;7.90;99.90
19342;DHT22;9807;48.258;12.690;2024-02-26T02:29:16;7.90;99.90
19342;DHT22;9807;48.258;12.690;2024-02-26T02:31:42;7.90;99.90
19342;DHT22;9807;48.258;12.690;2024-02-26T02:34:10;7.90;99.90
19342;DHT22;9807;48.258;12.690;2024-02-26T02:36:51;7.90;99.90
19342;DHT22;9807;48.258;12.690;2024-02-26T02:39:17;7.80;99.90
19342;DHT22;9807;48.258;12.690;2024-02-26T02:41:43;7.90;99.90
19342;DHT22;9807;48.258;12.690;2024-02-26T02:44:10;7.90;99.90
19342;DHT22;9807;48.258;12.690;2024-02-26T02:46:36;7.80;99.90
19342;DHT22;9807;48.258;12.690;2024-02-26T02:49:02;7.80;99.90
19342;DHT22;9807;48.258;12.690;2024-02-26T02:51:28;7.80;99.90
19342;DHT22;9807;48.258;12.690;2024-02-26T02:53:53;7.70;99.90
19342;DHT22;9807;48.258;12.690;2024-02-26T02:56:19;7.70;99.90
19342;DHT22;9807;48.258;12.690;2024-02-26T02:58:45;7.70;99.90
19342;DHT22;9807;48.258;12.690;2024-02-26T03:01:12;7.60;99.90
19342;DHT22;9807;48.258;12.690;2024-02-26T03:03:39;7.60;99.90
19342;DHT22;9807;48.258;12.690;2024-02-26T03:06:04;7.50;99.90
19342;DHT22;9807;48.258;12.690;2024-02-26T03:08:30;7.50;99.90
19342;DHT22;9807;48.258;12.690;2024-02-26T03:10:58;7.50;99.90
19342;DHT22;9807;48.258;12.690;2024-02-26T03:13:24;7.50;99.90
19342;DHT22;9807;48.258;12.690;2024-02-26T03:15:50;7.50;99.90
19342;DHT22;9807;48.258;12.690;2024-02-26T03:18:15;7.40;99.90
19342;DHT22;9807;48.258;12.690;2024-02-26T03:20:42;7.10;99.90
19342;DHT22;9807;48.258;12.690;2024-02-26T03:23:07;7.00;99.90
19342;DHT22;9807;48.258;12.690;2024-02-26T03:25:37;6.90;99.90
19342;DHT22;9807;48.258;12.690;2024-02-26T03:28:02;7.10;99.90
19342;DHT22;9807;48.258;12.690;2024-02-26T03:30:28;7.20;99.90
19342;DHT22;9807;48.258;12.690;2024-02-26T03:32:54;7.20;99.90
19342;DHT22;9807;48.258;12.690;2024-02-26T03:35:19;7.30;99.90
19342;DHT22;9807;48.258;12.690;2024-02-26T03:37:46;7.20;99.90
19342;DHT22;9807;48.258;12.690;2024-02-26T03:40:13;7.00;99.90
19342;DHT22;9807;48.258;12.690;2024-02-26T03:42:40;7.10;99.90
19342;DHT22;9807;48.258;12.690;2024-02-26T03:45:06;7.20;99.90
19342;DHT22;9807;48.258;12.690;2024-02-26T03:47:31;7.30;99.90
19342;DHT22;9807;48.258;12.690;2024-02-26T03:49:57;7.30;99.90
19342;DHT22;9807;48.258;12.690;2024-02-26T03:52:24;7.30;99.90
19342;DHT22;9807;48.258;12.690;2024-02-26T03:54:50;7.30;99.90
19342;DHT22;9807;48.258;12.690;2024-02-26T03:57:16;7.30;99.90
19342;DHT22;9807;48.258;12.690;2024-02-26T03:59:41;7.30;99.90
19342;DHT22;9807;48.258;12.690;2024-02-26T04:02:07;7.30;99.90
19342;DHT22;9807;48.258;12.690;2024-02-26T04:04:36;7.40;99.90
19342;DHT22;9807;48.258;12.690;2024-02-26T04:07:01;7.40;99.90
19342;DHT22;9807;48.258;12.690;2024-02-26T04:09:27;7.30;99.90
19342;DHT22;9807;48.258;12.690;2024-02-26T04:11:53;7.30;99.90
19342;DHT22;9807;48.258;12.690;2024-02-26T04:14:19;7.50;99.90
19342;DHT22;9807;48.258;12.690;2024-02-26T04:16:45;7.50;99.90
19342;DHT22;9807;48.258;12.690;2024-02-26T04:19:10;7.50;99.90
19342;DHT22;9807;48.258;12.690;2024-02-26T04:21:36;7.40;99.90
19342;DHT22;9807;48.258;12.690;2024-02-26T04:24:01;7.40;99.90
19342;DHT22;9807;48.258;12.690;2024-02-26T04:26:28;7.30;99.90
19342;DHT22;9807;48.258;12.690;2024-02-26T04:28:54;7.40;99.90
19342;DHT22;9807;48.258;12.690;2024-02-26T04:31:20;7.30;99.90
19342;DHT22;9807;48.258;12.690;2024-02-26T04:33:46;7.30;99.90
19342;DHT22;9807;48.258;12.690;2024-02-26T04:36:15;7.30;99.90
19342;DHT22;9807;48.258;12.690;2024-02-26T04:38:44;7.30;99.90
19342;DHT22;9807;48.258;12.690;2024-02-26T04:41:10;7.40;99.90
19342;DHT22;9807;48.258;12.690;2024-02-26T04:43:37;7.40;99.90
19342;DHT22;9807;48.258;12.690;2024-02-26T04:46:11;7.50;99.90
19342;DHT22;9807;48.258;12.690;2024-02-26T04:48:36;7.50;99.90
19342;DHT22;9807;48.258;12.690;2024-02-26T04:51:04;7.40;99.90
19342;DHT22;9807;48.258;12.690;2024-02-26T04:53:30;7.40;99.90
19342;DHT22;9807;48.258;12.690;2024-02-26T04:55:55;7.30;99.90
19342;DHT22;9807;48.258;12.690;2024-02-26T04:58:21;7.30;99.90
19342;DHT22;9807;48.258;12.690;2024-02-26T05:00:47;7.20;99.90
19342;DHT22;9807;48.258;12.690;2024-02-26T05:03:12;7.20;99.90
19342;DHT22;9807;48.258;12.690;2024-02-26T05:05:40;7.30;99.90
19342;DHT22;9807;48.258;12.690;2024-02-26T05:08:06;7.20;99.90
19342;DHT22;9807;48.258;12.690;2024-02-26T05:10:33;7.10;99.90
19342;DHT22;9807;48.258;12.690;2024-02-26T05:12:59;7.20;99.90
19342;DHT22;9807;48.258;12.690;2024-02-26T05:15:25;7.20;99.90
19342;DHT22;9807;48.258;12.690;2024-02-26T05:17:50;7.10;99.90
19342;DHT22;9807;48.258;12.690;2024-02-26T05:20:16;7.20;99.90
19342;DHT22;9807;48.258;12.690;2024-02-26T05:22:42;7.20;99.90
19342;DHT22;9807;48.258;12.690;2024-02-26T05:25:10;7.30;99.90
19342;DHT22;9807;48.258;12.690;2024-02-26T05:27:36;7.30;99.90
19342;DHT22;9807;48.258;12.690;2024-02-26T05:30:02;7.20;99.90
19342;DHT22;9807;48.258;12.690;2024-02-26T05:32:28;7.20;99.90
19342;DHT22;9807;48.258;12.690;2024-02-26T05:34:57;7.10;99.90
19342;DHT22;9807;48.258;12.690;2024-02-26T05:37:23;7.10;99.90
19342;DHT22;9807;48.258;12.690;2024-02-26T05:39:48;7.10;99.90
19342;DHT22;9807;48.258;12.690;2024-02-26T05:42:14;7.10;99.90
19342;DHT22;9807;48.258;12.690;2024-02-26T05:44:40;7.10;99.90
19342;DHT22;9807;48.258;12.690;2024-02-26T05:47:05;7.20;99.90
19342;DHT22;9807;48.258;12.690;2024-02-26T05:49:31;7.20;99.90
19342;DHT22;9807;48.258;12.690;2024-02-26T05:51:58;7.10;99.90
19342;DHT22;9807;48.258;12.690;2024-02-26T05:54:24;7.10;99.90
19342;DHT22;9807;48.258;12.690;2024-02-26T05:56:49;7.00;99.90
19342;DHT22;9807;48.258;12.690;2024-02-26T05:59:15;7.00;99.90
19342;DHT22;9807;48.258;12.690;2024-02-26T06:01:41;7.00;99.90
19342;DHT22;9807;48.258;12.690;2024-02-26T06:04:07;7.10;99.90
19342;DHT22;9807;48.258;12.690;2024-02-26T06:06:32;7.00;99.90
19342;DHT22;9807;48.258;12.690;2024-02-26T06:08:58;7.00;99.90
19342;DHT22;9807;48.258;12.690;2024-02-26T06:11:24;7.00;99.90
19342;DHT22;9807;48.258;12.690;2024-02-26T06:13:49;7.00;99.90
19342;DHT22;9807;48.258;12.690;2024-02-26T06:16:15;7.00;99.90
19342;DHT22;9807;48.258;12.690;2024-02-26T06:18:41;7.00;99.90
19342;DHT22;9807;48.258;12.690;2024-02-26T06:21:10;7.10;99.90
19342;DHT22;9807;48.258;12.690;2024-02-26T06:23:37;7.00;99.90
19342;DHT22;9807;48.258;12.690;2024-02-26T06:26:03;7.10;99.90
19342;DHT22;9807;48.258;12.690;2024-02-26T06:28:28;7.10;99.90
19342;DHT22;9807;48.258;12.690;2024-02-26T06:30:56;7.10;99.90
19342;DHT22;9807;48.258;12.690;2024-02-26T06:33:21;7.20;99.90
19342;DHT22;9807;48.258;12.690;2024-02-26T06:35:47;7.20;99.90
19342;DHT22;9807;48.258;12.690;2024-02-26T06:38:13;7.20;99.90
19342;DHT22;9807;48.258;12.690;2024-02-26T06:40:39;7.20;99.90
19342;DHT22;9807;48.258;12.690;2024-02-26T06:43:05;7.30;99.90
19342;DHT22;9807;48.258;12.690;2024-02-26T06:45:31;7.30;99.90
19342;DHT22;9807;48.258;12.690;2024-02-26T06:47:58;7.40;99.90
19342;DHT22;9807;48.258;12.690;2024-02-26T06:50:23;7.30;99.90
19342;DHT22;9807;48.258;12.690;2024-02-26T06:52:49;7.30;99.90
19342;DHT22;9807;48.258;12.690;2024-02-26T06:55:15;7.20;99.90
19342;DHT22;9807;48.258;12.690;2024-02-26T06:57:43;7.20;99.90
19342;DHT22;9807;48.258;12.690;2024-02-26T07:00:13;7.30;99.90
19342;DHT22;9807;48.258;12.690;2024-02-26T07:02:40;7.30;99.90
19342;DHT22;9807;48.258;12.690;2024-02-26T07:05:06;7.30;99.90
19342;DHT22;9807;48.258;12.690;2024-02-26T07:07:32;7.40;99.90
19342;DHT22;9807;48.258;12.690;2024-02-26T07:09:58;7.40;99.90
19342;DHT22;9807;48.258;12.690;2024-02-26T07:12:23;7.50;99.90
19342;DHT22;9807;48.258;12.690;2024-02-26T07:14:49;7.50;99.90
19342;DHT22;9807;48.258;12.690;2024-02-26T07:17:16;7.50;99.90
19342;DHT22;9807;48.258;12.690;2024-02-26T07:19:42;7.60;99.90
19342;DHT22;9807;48.258;12.690;2024-02-26T07:22:07;7.60;99.90
19342;DHT22;9807;48.258;12.690;2024-02-26T07:24:34;7.70;99.90
19342;DHT22;9807;48.258;12.690;2024-02-26T07:27:01;7.80;99.90
19342;DHT22;9807;48.258;12.690;2024-02-26T07:29:26;7.80;99.90
19342;DHT22;9807;48.258;12.690;2024-02-26T07:31:52;7.90;99.90
19342;DHT22;9807;48.258;12.690;2024-02-26T07:34:18;7.90;99.90
19342;DHT22;9807;48.258;12.690;2024-02-26T07:36:43;7.90;99.90
19342;DHT22;9807;48.258;12.690;2024-02-26T07:39:10;7.90;99.90
19342;DHT22;9807;48.258;12.690;2024-02-26T07:41:36;8.00;99.90
19342;DHT22;9807;48.258;12.690;2024-02-26T07:44:04;8.00;99.90
19342;DHT22;9807;48.258;12.690;2024-02-26T07:46:29;8.00;99.90
19342;DHT22;9807;48.258;12.690;2024-02-26T07:48:55;8.10;99.90
19342;DHT22;9807;48.258;12.690;2024-02-26T07:51:21;8.20;99.90
19342;DHT22;9807;48.258;12.690;2024-02-26T07:53:47;8.30;99.90
19342;DHT22;9807;48.258;12.690;2024-02-26T07:56:13;8.30;99.90
19342;DHT22;9807;48.258;12.690;2024-02-26T07:58:39;8.30;99.90
19342;DHT22;9807;48.258;12.690;2024-02-26T08:01:05;8.40;99.90
19342;DHT22;9807;48.258;12.690;2024-02-26T08:03:31;8.40;99.90
19342;DHT22;9807;48.258;12.690;2024-02-26T08:05:57;8.50;99.90
19342;DHT22;9807;48.258;12.690;2024-02-26T08:08:23;8.60;99.90
19342;DHT22;9807;48.258;12.690;2024-02-26T08:10:49;8.70;99.90
19342;DHT22;9807;48.258;12.690;2024-02-26T08:13:14;8.80;99.90
19342;DHT22;9807;48.258;12.690;2024-02-26T08:15:40;8.90;99.90
19342;DHT22;9807;48.258;12.690;2024-02-26T08:18:07;8.90;99.90
19342;DHT22;9807;48.258;12.690;2024-02-26T08:20:33;8.90;99.90
19342;DHT22;9807;48.258;12.690;2024-02-26T08:22:58;8.80;99.90
19342;DHT22;9807;48.258;12.690;2024-02-26T08:25:24;9.00;99.90
19342;DHT22;9807;48.258;12.690;2024-02-26T08:27:51;8.90;99.90
19342;DHT22;9807;48.258;12.690;2024-02-26T08:30:17;8.70;99.90
19342;DHT22;9807;48.258;12.690;2024-02-26T08:32:44;8.80;99.90
19342;DHT22;9807;48.258;12.690;2024-02-26T08:35:11;8.90;99.90
19342;DHT22;9807;48.258;12.690;2024-02-26T08:37:37;8.80;99.90
19342;DHT22;9807;48.258;12.690;2024-02-26T08:40:03;8.80;99.90
19342;DHT22;9807;48.258;12.690;2024-02-26T08:42:29;9.00;99.90
19342;DHT22;9807;48.258;12.690;2024-02-26T08:44:55;9.10;99.90
19342;DHT22;9807;48.258;12.690;2024-02-26T08:47:21;9.20;99.90
19342;DHT22;9807;48.258;12.690;2024-02-26T08:49:46;9.30;99.90
19342;DHT22;9807;48.258;12.690;2024-02-26T08:52:12;9.30;99.90
19342;DHT22;9807;48.258;12.690;2024-02-26T08:54:39;9.30;99.90
19342;DHT22;9807;48.258;12.690;2024-02-26T08:57:06;9.30;99.90
19342;DHT22;9807;48.258;12.690;2024-02-26T08:59:31;9.30;99.90
19342;DHT22;9807;48.258;12.690;2024-02-26T09:01:57;9.20;99.90
19342;DHT22;9807;48.258;12.690;2024-02-26T09:04:23;9.30;99.90
19342;DHT22;9807;48.258;12.690;2024-02-26T09:06:48;9.30;99.90
19342;DHT22;9807;48.258;12.690;2024-02-26T09:09:14;9.40;99.90
19342;DHT22;9807;48.258;12.690;2024-02-26T09:11:40;9.40;99.90
19342;DHT22;9807;48.258;12.690;2024-02-26T09:14:06;9.40;99.90
19342;DHT22;9807;48.258;12.690;2024-02-26T09:16:31;9.50;99.90
19342;DHT22;9807;48.258;12.690;2024-02-26T09:18:57;9.50;99.90
19342;DHT22;9807;48.258;12.690;2024-02-26T09:21:23;9.50;99.90
19342;DHT22;9807;48.258;12.690;2024-02-26T09:23:52;9.60;99.90
19342;DHT22;9807;48.258;12.690;2024-02-26T09:26:18;9.60;99.90
19342;DHT22;9807;48.258;12.690;2024-02-26T09:28:45;9.60;99.90
19342;DHT22;9807;48.258;12.690;2024-02-26T09:31:11;9.60;99.90
19342;DHT22;9807;48.258;12.690;2024-02-26T09:33:37;9.50;99.90
19342;DHT22;9807;48.258;12.690;2024-02-26T09:36:03;9.60;99.90
19342;DHT22;9807;48.258;12.690;2024-02-26T09:38:29;9.70;99.90
19342;DHT22;9807;48.258;12.690;2024-02-26T09:40:57;9.60;99.90
19342;DHT22;9807;48.258;12.690;2024-02-26T09:43:23;9.80;99.90
19342;DHT22;9807;48.258;12.690;2024-02-26T09:45:54;9.80;99.90
19342;DHT22;9807;48.258;12.690;2024-02-26T09:48:20;9.90;99.90
19342;DHT22;9807;48.258;12.690;2024-02-26T09:50:46;9.50;99.90
19342;DHT22;9807;48.258;12.690;2024-02-26T09:53:13;9.10;99.90
19342;DHT22;9807;48.258;12.690;2024-02-26T09:55:40;9.20;99.90
19342;DHT22;9807;48.258;12.690;2024-02-26T09:58:06;9.20;99.90
19342;DHT22;9807;48.258;12.690;2024-02-26T10:00:37;9.60;99.90
19342;DHT22;9807;48.258;12.690;2024-02-26T10:03:05;9.70;99.90
19342;DHT22;9807;48.258;12.690;2024-02-26T10:05:32;9.90;99.90
19342;DHT22;9807;48.258;12.690;2024-02-26T10:07:59;10.00;99.90
19342;DHT22;9807;48.258;12.690;2024-02-26T10:10:28;10.00;99.90
19342;DHT22;9807;48.258;12.690;2024-02-26T10:12:54;10.20;99.90
19342;DHT22;9807;48.258;12.690;2024-02-26T10:15:20;10.30;99.90
19342;DHT22;9807;48.258;12.690;2024-02-26T10:17:46;10.30;99.90
19342;DHT22;9807;48.258;12.690;2024-02-26T10:20:14;10.40;99.90
19342;DHT22;9807;48.258;12.690;2024-02-26T10:22:44;10.50;99.90
19342;DHT22;9807;48.258;12.690;2024-02-26T10:25:10;10.30;99.90
19342;DHT22;9807;48.258;12.690;2024-02-26T10:27:36;10.40;99.90
19342;DHT22;9807;48.258;12.690;2024-02-26T10:30:19;10.50;99.90
19342;DHT22;9807;48.258;12.690;2024-02-26T10:32:46;10.60;99.90
19342;DHT22;9807;48.258;12.690;2024-02-26T10:35:15;10.70;99.90
19342;DHT22;9807;48.258;12.690;2024-02-26T10:37:42;10.60;99.90
19342;DHT22;9807;48.258;12.690;2024-02-26T10:40:15;10.60;99.90
19342;DHT22;9807;48.258;12.690;2024-02-26T10:42:45;10.70;99.90
19342;DHT22;9807;48.258;12.690;2024-02-26T10:45:12;10.80;99.90
19342;DHT22;9807;48.258;12.690;2024-02-26T10:47:38;10.90;99.90
19342;DHT22;9807;48.258;12.690;2024-02-26T10:50:06;11.00;99.90
19342;DHT22;9807;48.258;12.690;2024-02-26T10:52:33;11.00;99.90
19342;DHT22;9807;48.258;12.690;2024-02-26T10:55:04;11.10;99.90
19342;DHT22;9807;48.258;12.690;2024-02-26T10:57:39;11.10;99.90
19342;DHT22;9807;48.258;12.690;2024-02-26T11:00:06;11.20;99.90
19342;DHT22;9807;48.258;12.690;2024-02-26T11:02:33;11.20;99.90
19342;DHT22;9807;48.258;12.690;2024-02-26T11:05:03;11.30;99.90
19342;DHT22;9807;48.258;12.690;2024-02-26T11:07:32;11.30;99.90
19342;DHT22;9807;48.258;12.690;2024-02-26T11:10:00;11.40;99.90
19342;DHT22;9807;48.258;12.690;2024-02-26T11:12:28;11.30;99.90
19342;DHT22;9807;48.258;12.690;2024-02-26T11:14:55;11.30;99.90
19342;DHT22;9807;48.258;12.690;2024-02-26T11:17:27;11.40;99.90
19342;DHT22;9807;48.258;12.690;2024-02-26T11:19:58;11.50;99.90
19342;DHT22;9807;48.258;12.690;2024-02-26T11:22:24;11.40;99.90
19342;DHT22;9807;48.258;12.690;2024-02-26T11:24:54;11.50;99.90
19342;DHT22;9807;48.258;12.690;2024-02-26T11:27:25;11.50;99.90
19342;DHT22;9807;48.258;12.690;2024-02-26T11:29:53;11.50;99.90
19342;DHT22;9807;48.258;12.690;2024-02-26T11:32:20;11.60;99.90
19342;DHT22;9807;48.258;12.690;2024-02-26T11:34:46;11.60;99.90
19342;DHT22;9807;48.258;12.690;2024-02-26T11:37:13;11.60;99.90
19342;DHT22;9807;48.258;12.690;2024-02-26T11:39:41;11.70;99.90
19342;DHT22;9807;48.258;12.690;2024-02-26T11:42:07;11.80;99.90
19342;DHT22;9807;48.258;12.690;2024-02-26T11:44:35;11.90;99.90
19342;DHT22;9807;48.258;12.690;2024-02-26T11:47:23;11.90;99.90
19342;DHT22;9807;48.258;12.690;2024-02-26T11:49:49;11.90;99.90
19342;DHT22;9807;48.258;12.690;2024-02-26T11:52:15;11.90;99.90
19342;DHT22;9807;48.258;12.690;2024-02-26T11:54:48;12.00;99.90
19342;DHT22;9807;48.258;12.690;2024-02-26T11:57:31;11.90;99.90
19342;DHT22;9807;48.258;12.690;2024-02-26T12:05:18;12.00;99.90
19342;DHT22;9807;48.258;12.690;2024-02-26T12:08:04;12.10;99.90
19342;DHT22;9807;48.258;12.690;2024-02-26T12:10:39;12.10;99.90
19342;DHT22;9807;48.258;12.690;2024-02-26T12:13:15;12.10;99.90
19342;DHT22;9807;48.258;12.690;2024-02-26T12:15:43;12.00;99.90
19342;DHT22;9807;48.258;12.690;2024-02-26T12:18:11;12.00;99.90
19342;DHT22;9807;48.258;12.690;2024-02-26T12:20:40;12.00;99.90
19342;DHT22;9807;48.258;12.690;2024-02-26T12:23:06;12.10;99.90
19342;DHT22;9807;48.258;12.690;2024-02-26T12:25:33;12.20;99.90
19342;DHT22;9807;48.258;12.690;2024-02-26T12:27:59;12.10;99.90
19342;DHT22;9807;48.258;12.690;2024-02-26T12:30:26;12.20;99.90
19342;DHT22;9807;48.258;12.690;2024-02-26T12:32:53;12.20;99.90
19342;DHT22;9807;48.258;12.690;2024-02-26T12:35:23;12.20;99.90
19342;DHT22;9807;48.258;12.690;2024-02-26T12:37:49;12.30;99.90
19342;DHT22;9807;48.258;12.690;2024-02-26T12:40:17;12.40;99.90
19342;DHT22;9807;48.258;12.690;2024-02-26T12:42:42;12.50;99.90
19342;DHT22;9807;48.258;12.690;2024-02-26T12:45:11;12.50;99.90
19342;DHT22;9807;48.258;12.690;2024-02-26T12:47:42;12.60;99.90
19342;DHT22;9807;48.258;12.690;2024-02-26T12:50:10;12.60;99.90
19342;DHT22;9807;48.258;12.690;2024-02-26T12:52:39;12.60;99.90
19342;DHT22;9807;48.258;12.690;2024-02-26T12:55:06;12.50;99.90
19342;DHT22;9807;48.258;12.690;2024-02-26T12:57:39;12.40;99.90
19342;DHT22;9807;48.258;12.690;2024-02-26T13:00:06;12.60;99.90
19342;DHT22;9807;48.258;12.690;2024-02-26T13:02:36;12.70;99.90
19342;DHT22;9807;48.258;12.690;2024-02-26T13:05:07;12.70;99.90
19342;DHT22;9807;48.258;12.690;2024-02-26T13:07:34;12.60;99.90
19342;DHT22;9807;48.258;12.690;2024-02-26T13:10:00;12.60;99.90
19342;DHT22;9807;48.258;12.690;2024-02-26T13:12:26;12.70;99.90
19342;DHT22;9807;48.258;12.690;2024-02-26T13:15:02;12.70;99.90
19342;DHT22;9807;48.258;12.690;2024-02-26T13:17:31;12.80;99.90
19342;DHT22;9807;48.258;12.690;2024-02-26T13:19:57;12.80;99.90
19342;DHT22;9807;48.258;12.690;2024-02-26T13:22:23;12.80;99.90
19342;DHT22;9807;48.258;12.690;2024-02-26T13:24:56;12.80;99.90
19342;DHT22;9807;48.258;12.690;2024-02-26T13:27:23;12.80;99.90
19342;DHT22;9807;48.258;12.690;2024-02-26T13:30:01;12.90;99.90
19342;DHT22;9807;48.258;12.690;2024-02-26T13:32:27;12.80;99.90
19342;DHT22;9807;48.258;12.690;2024-02-26T13:35:12;12.90;99.90
19342;DHT22;9807;48.258;12.690;2024-02-26T13:37:39;12.90;99.90
19342;DHT22;9807;48.258;12.690;2024-02-26T13:40:10;12.90;99.90
19342;DHT22;9807;48.258;12.690;2024-02-26T13:42:37;12.90;99.90
19342;DHT22;9807;48.258;12.690;2024-02-26T13:45:04;12.90;99.90
19342;DHT22;9807;48.258;12.690;2024-02-26T13:47:33;12.90;99.90
19342;DHT22;9807;48.258;12.690;2024-02-26T13:50:00;13.00;99.90
19342;DHT22;9807;48.258;12.690;2024-02-26T13:52:26;13.00;99.90
19342;DHT22;9807;48.258;12.690;2024-02-26T13:54:52;13.10;99.90
19342;DHT22;9807;48.258;12.690;2024-02-26T13:57:18;13.10;99.90
19342;DHT22;9807;48.258;12.690;2024-02-26T13:59:44;13.10;99.90
19342;DHT22;9807;48.258;12.690;2024-02-26T14:02:10;13.10;99.90
19342;DHT22;9807;48.258;12.690;2024-02-26T14:04:37;13.20;99.90
19342;DHT22;9807;48.258;12.690;2024-02-26T14:07:04;13.10;99.90
19342;DHT22;9807;48.258;12.690;2024-02-26T14:09:30;13.10;99.90
19342;DHT22;9807;48.258;12.690;2024-02-26T14:11:58;13.10;99.90
19342;DHT22;9807;48.258;12.690;2024-02-26T14:14:24;13.20;99.90
19342;DHT22;9807;48.258;12.690;2024-02-26T14:16:51;13.20;99.90
19342;DHT22;9807;48.258;12.690;2024-02-26T14:19:16;13.10;99.90
19342;DHT22;9807;48.258;12.690;2024-02-26T14:21:42;13.10;99.90
19342;DHT22;9807;48.258;12.690;2024-02-26T14:24:09;13.10;99.90
19342;DHT22;9807;48.258;12.690;2024-02-26T14:26:35;13.10;99.90
19342;DHT22;9807;48.258;12.690;2024-02-26T14:29:01;13.10;99.90
19342;DHT22;9807;48.258;12.690;2024-02-26T14:31:27;13.20;99.90
19342;DHT22;9807;48.258;12.690;2024-02-26T14:33:52;13.20;99.90
19342;DHT22;9807;48.258;12.690;2024-02-26T14:36:20;13.20;99.90
19342;DHT22;9807;48.258;12.690;2024-02-26T14:38:46;13.20;99.90
19342;DHT22;9807;48.258;12.690;2024-02-26T14:41:12;13.20;99.90
19342;DHT22;9807;48.258;12.690;2024-02-26T14:43:38;13.30;99.90
19342;DHT22;9807;48.258;12.690;2024-02-26T14:46:03;13.30;99.90
19342;DHT22;9807;48.258;12.690;2024-02-26T14:48:30;13.30;99.90
19342;DHT22;9807;48.258;12.690;2024-02-26T14:50:57;13.30;99.90
19342;DHT22;9807;48.258;12.690;2024-02-26T14:53:22;13.30;99.90
19342;DHT22;9807;48.258;12.690;2024-02-26T14:55:48;13.40;99.90
19342;DHT22;9807;48.258;12.690;2024-02-26T14:58:14;13.30;99.90
19342;DHT22;9807;48.258;12.690;2024-02-26T15:00:39;13.30;99.90
19342;DHT22;9807;48.258;12.690;2024-02-26T15:03:05;13.10;99.90
19342;DHT22;9807;48.258;12.690;2024-02-26T15:05:32;13.00;99.90
19342;DHT22;9807;48.258;12.690;2024-02-26T15:07:58;13.00;99.90
19342;DHT22;9807;48.258;12.690;2024-02-26T15:10:24;13.00;99.90
19342;DHT22;9807;48.258;12.690;2024-02-26T15:12:50;12.80;99.90
19342;DHT22;9807;48.258;12.690;2024-02-26T15:15:23;12.70;99.90
19342;DHT22;9807;48.258;12.690;2024-02-26T15:17:49;12.50;99.90
19342;DHT22;9807;48.258;12.690;2024-02-26T15:20:15;12.40;99.90
19342;DHT22;9807;48.258;12.690;2024-02-26T15:22:41;12.40;99.90
19342;DHT22;9807;48.258;12.690;2024-02-26T15:25:07;12.30;99.90
19342;DHT22;9807;48.258;12.690;2024-02-26T15:27:35;12.40;99.90
19342;DHT22;9807;48.258;12.690;2024-02-26T15:30:01;12.30;99.90
19342;DHT22;9807;48.258;12.690;2024-02-26T15:32:27;12.30;99.90
19342;DHT22;9807;48.258;12.690;2024-02-26T15:34:54;12.10;99.90
19342;DHT22;9807;48.258;12.690;2024-02-26T15:37:19;12.10;99.90
19342;DHT22;9807;48.258;12.690;2024-02-26T15:39:45;12.10;99.90
19342;DHT22;9807;48.258;12.690;2024-02-26T15:42:12;12.00;99.90